Time;durP1;ratioP1;P1;durP2;ratioP2;P2;SDS_P1;SDS_P2;PMS_P1;PMS_P2;Temp;Humidity;BMP_temperature;BMP_pressure;BME280_temperature;BME280_humidity;BME280_pressure;Samples;Min_cycle;Max_cycle;Signal;HPM_P1;HPM_P2
2024/02/20 00:00:12;;;;;;;3.20;2.40;;;;;;;-2.95;94.45;101872.44;5034361;28;20124;-70
2024/02/20 00:02:44;;;;;;;3.47;2.42;;;;;;;-2.88;94.01;101880.03;5034008;28;20180;-71
2024/02/20 00:05:13;;;;;;;7.03;2.78;;;;;;;-2.78;93.76;101887.53;5035040;28;20524;-66
2024/02/20 00:07:40;;;;;;;4.15;2.92;;;;;;;-2.78;93.43;101890.16;5032920;28;20041;-70
2024/02/20 00:10:12;;;;;;;3.08;2.65;;;;;;;-2.82;93.55;101881.59;5034185;28;20041;-69
2024/02/20 00:12:38;;;;;;;3.55;2.80;;;;;;;-2.90;93.12;101863.56;5034644;28;20034;-71
2024/02/20 00:15:07;;;;;;;4.28;2.95;;;;;;;-3.03;93.17;101838.81;5034053;28;20068;-73
2024/02/20 00:17:39;;;;;;;3.67;2.58;;;;;;;-2.80;93.07;101879.78;5033996;28;20037;-70
2024/02/20 00:20:05;;;;;;;5.38;3.20;;;;;;;-2.90;93.15;101863.56;5032742;28;20408;-71
2024/02/20 00:22:32;;;;;;;3.00;2.65;;;;;;;-2.79;93.49;101875.41;5034064;28;20441;-70
2024/02/20 00:24:58;;;;;;;3.42;2.70;;;;;;;-2.88;93.56;101864.41;5032899;28;20061;-70
2024/02/20 00:27:24;;;;;;;4.33;2.47;;;;;;;-2.84;93.94;101862.53;5034359;28;20382;-70
2024/02/20 00:29:50;;;;;;;3.53;2.30;;;;;;;-2.82;93.34;101851.16;5034736;28;20038;-71
2024/02/20 00:32:21;;;;;;;3.33;2.30;;;;;;;-2.85;93.24;101843.44;5034197;28;20048;-70
2024/02/20 00:34:47;;;;;;;5.53;2.42;;;;;;;-2.87;92.95;101833.97;5034554;28;20040;-71
2024/02/20 00:37:13;;;;;;;4.73;2.70;;;;;;;-2.77;93.73;101850.13;5032906;28;20136;-70
2024/02/20 00:39:39;;;;;;;3.63;2.38;;;;;;;-2.99;93.81;101809.13;5033855;28;20318;-70
2024/02/20 00:42:04;;;;;;;3.83;2.87;;;;;;;-3.65;93.51;101697.56;5015901;28;20041;-71
2024/02/20 00:44:30;;;;;;;2.83;2.50;;;;;;;-2.79;93.19;101839.75;5033482;28;20383;-69
2024/02/20 00:46:55;;;;;;;2.50;2.30;;;;;;;-2.78;93.49;101836.25;5033578;28;20133;-70
2024/02/20 00:49:23;;;;;;;3.88;2.42;;;;;;;-2.94;92.58;101817.66;5033155;28;20072;-71
2024/02/20 00:51:49;;;;;;;7.05;3.00;;;;;;;-3.18;92.76;101774.16;5032472;28;20127;-70
2024/02/20 00:54:15;;;;;;;3.90;2.42;;;;;;;-2.81;93.84;101834.59;5033536;28;20034;-70
2024/02/20 00:56:41;;;;;;;3.37;2.47;;;;;;;-2.91;93.93;101804.50;5032770;28;20493;-69
2024/02/20 00:59:07;;;;;;;3.90;3.33;;;;;;;-2.66;94.04;101838.44;5032087;28;20489;-70
2024/02/20 01:01:33;;;;;;;4.55;2.60;;;;;;;-2.71;93.29;101816.88;5033469;28;20040;-69
2024/02/20 01:03:58;;;;;;;3.97;3.23;;;;;;;-2.75;92.81;101812.69;5033592;28;20037;-72
2024/02/20 01:06:24;;;;;;;6.70;3.50;;;;;;;-2.87;93.21;101793.09;5037438;28;20436;-67
2024/02/20 01:08:49;;;;;;;4.20;2.73;;;;;;;-2.70;92.90;101821.19;5037404;28;20033;-65
2024/02/20 01:11:15;;;;;;;4.30;2.30;;;;;;;-2.67;92.70;101815.03;5035941;28;20041;-70
2024/02/20 01:13:41;;;;;;;3.47;2.17;;;;;;;-2.63;92.66;101820.06;5034167;28;20034;-69
2024/02/20 01:16:07;;;;;;;4.70;2.53;;;;;;;-2.66;92.20;101814.13;5033037;28;20045;-69
2024/02/20 01:18:34;;;;;;;4.47;2.10;;;;;;;-2.68;92.29;101811.56;5033409;28;20664;-69
2024/02/20 01:21:02;;;;;;;4.30;2.45;;;;;;;-2.65;93.13;101818.44;5037027;28;20258;-69
2024/02/20 01:23:28;;;;;;;4.07;2.60;;;;;;;-2.78;93.33;101788.47;5038521;28;20124;-70
2024/02/20 01:25:56;;;;;;;6.03;2.33;;;;;;;-2.62;92.83;101813.09;5046301;28;20087;-68
2024/02/20 01:28:22;;;;;;;3.80;2.55;;;;;;;-3.00;92.64;101742.28;5047637;28;20072;-70
2024/02/20 01:30:47;;;;;;;4.63;2.67;;;;;;;-2.73;92.56;101786.56;5047216;28;20103;-69
2024/02/20 01:33:13;;;;;;;3.53;2.50;;;;;;;-2.61;91.76;101809.59;5053713;28;20136;-70
2024/02/20 01:35:38;;;;;;;2.63;2.10;;;;;;;-2.73;91.70;101789.16;5053039;28;20045;-71
2024/02/20 01:38:04;;;;;;;3.70;2.43;;;;;;;-2.68;91.80;101797.66;5047025;28;20045;-66
2024/02/20 01:40:31;;;;;;;4.43;2.50;;;;;;;-2.89;92.31;101768.84;5054859;28;20021;-71
2024/02/20 01:42:58;;;;;;;3.22;2.55;;;;;;;-3.13;92.68;101738.41;5054048;28;20060;-69
2024/02/20 01:45:26;;;;;;;4.18;2.88;;;;;;;-2.84;92.67;101787.78;5054888;28;20048;-68
2024/02/20 01:47:52;;;;;;;4.40;3.42;;;;;;;-2.76;92.38;101792.72;5051925;28;20064;-70
2024/02/20 01:50:19;;;;;;;4.03;2.20;;;;;;;-2.68;92.49;101798.53;5051208;28;20045;-69
2024/02/20 01:52:44;;;;;;;5.05;2.33;;;;;;;-2.74;92.83;101792.69;5053414;28;20037;-67
2024/02/20 01:55:11;;;;;;;2.63;2.43;;;;;;;-2.90;92.24;101776.69;5050638;28;20040;-67
2024/02/20 01:57:38;;;;;;;2.63;2.35;;;;;;;-2.79;93.19;101790.22;5049487;28;20057;-70
2024/02/20 02:00:05;;;;;;;5.63;2.95;;;;;;;-2.78;92.94;101794.53;5051000;28;20045;-69
2024/02/20 02:02:31;;;;;;;6.22;2.60;;;;;;;-2.77;92.86;101795.38;5050314;28;20117;-71
2024/02/20 02:04:56;;;;;;;3.53;2.40;;;;;;;-2.78;92.60;101786.72;5044809;28;20489;-71
2024/02/20 02:07:22;;;;;;;4.57;2.43;;;;;;;-2.77;92.88;101787.56;5033971;28;20041;-70
2024/02/20 02:09:47;;;;;;;4.10;2.37;;;;;;;-2.96;92.87;101762.13;5032124;28;20123;-70
2024/02/20 02:12:13;;;;;;;4.93;2.40;;;;;;;-3.19;93.57;101712.53;5033390;28;20068;-70
2024/02/20 02:14:45;;;;;;;4.57;2.80;;;;;;;-3.21;92.62;101720.41;5033654;28;20508;-71
2024/02/20 02:17:15;;;;;;;2.72;2.20;;;;;;;-2.75;92.99;101777.94;5032243;28;20040;-71
2024/02/20 02:19:41;;;;;;;2.67;2.47;;;;;;;-2.78;92.08;101770.22;5031934;28;20044;-71
2024/02/20 02:22:07;;;;;;;3.30;2.28;;;;;;;-2.81;91.90;101756.41;5032372;28;20100;-71
2024/02/20 02:24:39;;;;;;;2.65;2.45;;;;;;;-3.25;91.50;101682.31;5032561;28;20068;-70
2024/02/20 02:27:05;;;;;;;2.63;2.13;;;;;;;-2.70;91.79;101781.22;5033187;28;20084;-70
2024/02/20 02:29:33;;;;;;;5.68;2.17;;;;;;;-2.70;92.25;101778.63;5034803;28;20053;-69
2024/02/20 02:31:59;;;;;;;2.78;2.17;;;;;;;-2.73;92.20;101770.91;5033967;28;20041;-69
2024/02/20 02:34:29;;;;;;;2.63;2.20;;;;;;;-2.83;92.20;101752.13;5034481;28;20053;-70
2024/02/20 02:36:55;;;;;;;3.30;2.40;;;;;;;-2.67;92.30;101773.31;5040562;28;20268;-69
2024/02/20 02:39:23;;;;;;;4.00;2.45;;;;;;;-2.66;92.41;101767.19;5037986;28;20077;-70
2024/02/20 02:41:51;;;;;;;4.15;2.10;;;;;;;-2.67;91.75;101765.47;5037918;28;20034;-70
2024/02/20 02:44:18;;;;;;;2.83;2.17;;;;;;;-2.71;91.21;101762.13;5041706;28;20068;-69
2024/02/20 02:46:44;;;;;;;3.88;2.42;;;;;;;-2.75;92.06;101744.91;5042354;28;20030;-67
2024/02/20 02:49:10;;;;;;;4.37;2.53;;;;;;;-3.05;91.43;101694.69;5037095;28;20060;-67
2024/02/20 02:51:35;;;;;;;6.80;2.57;;;;;;;-2.75;91.52;101755.31;5037205;28;20167;-69
2024/02/20 02:54:02;;;;;;;5.13;2.87;;;;;;;-2.70;92.25;101766.44;5031930;28;20116;-71
2024/02/20 02:56:28;;;;;;;5.07;2.13;;;;;;;-2.77;92.01;101746.72;5031969;28;20030;-70
2024/02/20 02:58:54;;;;;;;2.63;2.17;;;;;;;-2.84;92.30;101729.59;5032381;28;20584;-69
2024/02/20 03:01:22;;;;;;;4.25;2.40;;;;;;;-2.69;91.77;101739.47;5030913;28;20036;-69
2024/02/20 03:03:47;;;;;;;6.78;2.72;;;;;;;-2.64;91.81;101747.97;5032018;28;20489;-70
2024/02/20 03:06:13;;;;;;;6.90;3.87;;;;;;;-3.18;91.27;101656.91;5032009;28;20128;-69
2024/02/20 03:08:40;;;;;;;2.95;2.70;;;;;;;-2.56;90.97;101760.75;5031860;28;20044;-71
2024/02/20 03:11:06;;;;;;;2.97;2.50;;;;;;;-2.61;90.49;101747.00;5031519;28;20037;-68
2024/02/20 03:13:33;;;;;;;5.10;2.80;;;;;;;-2.63;91.45;101746.22;5031777;28;20088;-68
2024/02/20 03:16:03;;;;;;;3.80;2.88;;;;;;;-2.69;91.27;101731.63;5031229;28;20608;-69
2024/02/20 03:18:36;;;;;;;3.83;2.30;;;;;;;-2.74;90.81;101719.66;5032042;28;20069;-69
2024/02/20 03:21:02;;;;;;;5.03;2.55;;;;;;;-2.71;90.95;101714.34;5030215;28;20029;-70
2024/02/20 03:23:32;;;;;;;3.63;2.73;;;;;;;-2.73;90.96;101717.00;5038217;28;20116;-67
2024/02/20 03:26:01;;;;;;;2.92;2.42;;;;;;;-2.64;91.43;101721.03;5038370;28;20054;-69
2024/02/20 03:28:28;;;;;;;3.50;2.50;;;;;;;-2.64;91.14;101721.88;5030528;28;20045;-69
2024/02/20 03:30:54;;;;;;;4.88;2.58;;;;;;;-2.70;90.47;101724.72;5031561;28;20115;-68
2024/02/20 03:33:23;;;;;;;2.55;2.35;;;;;;;-2.81;91.16;101693.81;5033354;28;20034;-68
2024/02/20 03:35:50;;;;;;;5.93;3.05;;;;;;;-2.56;90.34;101734.69;5033074;28;20033;-68
2024/02/20 03:38:16;;;;;;;6.07;2.60;;;;;;;-2.77;90.25;101707.59;5032158;28;20164;-69
2024/02/20 03:40:42;;;;;;;6.93;2.60;;;;;;;-2.65;90.83;101738.44;5033829;28;20116;-71
2024/02/20 03:43:08;;;;;;;5.40;2.70;;;;;;;-2.88;90.83;101702.78;5034948;28;20033;-71
2024/02/20 03:45:34;;;;;;;2.97;2.27;;;;;;;-2.75;90.39;101713.59;5035019;28;20048;-68
2024/02/20 03:47:59;;;;;;;3.33;2.27;;;;;;;-2.64;90.26;101731.47;5034658;28;20033;-71
2024/02/20 03:50:25;;;;;;;4.13;2.87;;;;;;;-2.79;90.83;101716.38;5034871;28;20363;-71
2024/02/20 03:52:54;;;;;;;4.80;2.70;;;;;;;-2.72;91.24;101723.06;5033994;28;20048;-71
2024/02/20 03:55:19;;;;;;;6.67;3.30;;;;;;;-2.89;91.33;101698.47;5034631;28;20467;-70
2024/02/20 03:57:46;;;;;;;3.73;2.70;;;;;;;-2.88;91.07;101697.56;5033072;28;20036;-71
2024/02/20 04:00:12;;;;;;;4.25;2.30;;;;;;;-3.21;91.05;101639.63;5034303;28;20370;-68
2024/02/20 04:02:42;;;;;;;4.05;2.70;;;;;;;-2.79;90.52;101700.75;5034060;28;20037;-68
2024/02/20 04:05:12;;;;;;;4.10;3.00;;;;;;;-2.76;91.09;101711.06;5034042;28;20060;-69
2024/02/20 04:07:42;;;;;;;2.72;2.45;;;;;;;-2.83;91.71;101695.63;5035460;28;20044;-68
2024/02/20 04:10:12;;;;;;;6.05;2.67;;;;;;;-2.82;91.61;101704.31;5044349;28;20030;-69
2024/02/20 04:12:38;;;;;;;5.18;3.17;;;;;;;-2.89;92.00;101690.66;5038080;28;20493;-68
2024/02/20 04:15:06;;;;;;;6.88;2.80;;;;;;;-2.85;91.63;101705.28;5034608;28;20033;-69
2024/02/20 04:17:33;;;;;;;3.10;2.42;;;;;;;-2.83;91.61;101715.66;5034535;28;20148;-70
2024/02/20 04:20:01;;;;;;;5.45;2.63;;;;;;;-3.02;91.63;101678.94;5034735;28;20033;-71
2024/02/20 04:22:27;;;;;;;5.95;2.85;;;;;;;-3.57;92.03;101602.69;5033412;28;20505;-72
2024/02/20 04:24:52;;;;;;;7.17;3.27;;;;;;;-2.83;92.09;101706.06;5034127;28;20054;-71
2024/02/20 04:27:18;;;;;;;4.43;2.30;;;;;;;-3.17;91.87;101649.06;5033224;28;20099;-70
2024/02/20 04:29:44;;;;;;;3.00;2.53;;;;;;;-2.99;91.99;101670.16;5036689;28;20124;-70
2024/02/20 04:32:09;;;;;;;4.23;2.63;;;;;;;-2.84;91.71;101709.56;5034834;28;20464;-73
2024/02/20 04:34:35;;;;;;;3.10;2.73;;;;;;;-2.89;92.62;101689.75;5035475;28;20033;-69
2024/02/20 04:37:00;;;;;;;6.03;2.77;;;;;;;-3.02;92.02;101668.50;5036030;28;20432;-72
2024/02/20 04:39:26;;;;;;;6.37;2.80;;;;;;;-2.88;91.32;101697.56;5034423;28;20489;-75
2024/02/20 04:41:51;;;;;;;3.97;2.83;;;;;;;-2.93;91.55;101688.19;5035955;28;20044;-76
2024/02/20 04:44:17;;;;;;;5.57;2.70;;;;;;;-2.88;91.44;101692.34;5035182;28;20037;-73
2024/02/20 04:46:42;;;;;;;4.03;2.87;;;;;;;-2.87;91.07;101694.06;5016909;28;20120;-72
2024/02/20 04:49:20;;;;;;;8.65;3.03;;;;;;;-2.82;91.92;101697.34;5033692;28;20044;-72
2024/02/20 04:51:46;;;;;;;6.63;3.17;;;;;;;-2.98;91.81;101680.53;5034649;28;20045;-75
2024/02/20 04:54:11;;;;;;;6.83;3.40;;;;;;;-2.83;91.35;101698.25;5034499;28;20095;-76
2024/02/20 04:56:37;;;;;;;6.67;3.40;;;;;;;-2.96;91.32;101685.69;5034975;28;20037;-75
2024/02/20 04:59:03;;;;;;;5.83;2.80;;;;;;;-3.10;91.39;101665.34;5033981;28;20042;-71
2024/02/20 05:01:28;;;;;;;4.97;3.13;;;;;;;-2.85;91.60;101707.88;5033561;28;20128;-72
2024/02/20 05:03:54;;;;;;;5.00;2.90;;;;;;;-2.88;90.70;101702.78;5033077;28;20044;-69
2024/02/20 05:06:20;;;;;;;5.87;3.00;;;;;;;-3.08;91.07;101675.69;5033171;28;20041;-73
2024/02/20 05:08:45;;;;;;;4.83;2.40;;;;;;;-3.04;91.63;101685.97;5031665;28;20029;-69
2024/02/20 05:11:11;;;;;;;7.83;3.67;;;;;;;-2.97;91.19;101687.44;5032511;28;20033;-71
2024/02/20 05:13:37;;;;;;;10.27;5.50;;;;;;;-3.18;91.42;101665.59;5032701;28;20033;-69
2024/02/20 05:16:03;;;;;;;5.60;3.43;;;;;;;-3.00;90.84;101687.53;5032781;28;20029;-70
2024/02/20 05:18:29;;;;;;;5.28;2.90;;;;;;;-3.05;91.17;101686.00;5032667;28;20037;-68
2024/02/20 05:20:55;;;;;;;3.33;2.80;;;;;;;-3.20;91.66;101667.38;5033219;28;20033;-70
2024/02/20 05:23:21;;;;;;;4.50;2.87;;;;;;;-2.94;91.76;101692.53;5031565;28;20124;-69
2024/02/20 05:25:47;;;;;;;9.15;3.10;;;;;;;-3.02;91.98;101665.91;5031031;28;20055;-68
2024/02/20 05:28:13;;;;;;;4.38;3.63;;;;;;;-3.01;91.65;101671.97;5031360;28;20049;-70
2024/02/20 05:30:39;;;;;;;6.20;3.77;;;;;;;-3.10;91.50;101654.06;5032133;28;20038;-71
2024/02/20 05:33:05;;;;;;;4.78;3.50;;;;;;;-3.02;91.11;101676.31;5031928;28;20087;-69
2024/02/20 05:35:31;;;;;;;4.28;3.17;;;;;;;-3.14;91.54;101651.56;5032399;28;20100;-71
2024/02/20 05:38:00;;;;;;;9.45;6.22;;;;;;;-3.16;91.65;101655.97;5030912;28;20128;-71
2024/02/20 05:40:26;;;;;;;4.40;3.15;;;;;;;-3.41;91.31;101618.66;5031261;28;20412;-70
2024/02/20 05:42:51;;;;;;;6.97;4.17;;;;;;;-3.03;92.22;101674.63;5014352;28;20038;-69
2024/02/20 05:45:18;;;;;;;5.73;4.13;;;;;;;-3.23;92.43;101645.81;5028645;28;20037;-69
2024/02/20 05:47:44;;;;;;;6.88;3.08;;;;;;;-3.13;92.32;101649.81;5031579;28;20041;-72
2024/02/20 05:50:11;;;;;;;5.82;3.45;;;;;;;-3.13;91.97;101655.88;5047196;28;20037;-72
2024/02/20 05:52:39;;;;;;;5.28;3.25;;;;;;;-3.14;91.87;101640.28;5032227;28;20053;-72
2024/02/20 05:55:07;;;;;;;6.78;3.47;;;;;;;-3.02;91.70;101673.72;5030847;28;20056;-73
2024/02/20 05:57:33;;;;;;;5.80;3.97;;;;;;;-3.05;90.95;101652.97;5032180;28;20382;-72
2024/02/20 05:59:59;;;;;;;10.57;5.40;;;;;;;-2.86;91.62;101677.50;5030404;28;20187;-73
2024/02/20 06:02:25;;;;;;;7.47;4.53;;;;;;;-2.84;91.25;101678.28;5031114;28;20479;-71
2024/02/20 06:04:51;;;;;;;5.33;3.27;;;;;;;-2.97;90.85;101655.31;5031648;28;20036;-71
2024/02/20 06:07:17;;;;;;;6.05;3.83;;;;;;;-2.79;90.08;101670.31;5031604;28;20040;-70
2024/02/20 06:09:43;;;;;;;6.70;3.50;;;;;;;-2.79;89.69;101670.31;5031813;28;20103;-72
2024/02/20 06:12:10;;;;;;;4.93;3.37;;;;;;;-3.04;90.88;101633.84;5030486;28;20037;-71
2024/02/20 06:14:36;;;;;;;7.82;3.22;;;;;;;-2.87;90.83;101660.16;5031449;28;20038;-71
2024/02/20 06:17:02;;;;;;;10.93;4.95;;;;;;;-2.83;90.80;101666.97;5032362;28;20037;-70
2024/02/20 06:19:27;;;;;;;7.57;3.60;;;;;;;-2.91;90.25;101655.94;5032842;28;20140;-73
2024/02/20 06:21:53;;;;;;;7.10;3.73;;;;;;;-2.86;90.59;101654.03;5033323;28;20040;-72
2024/02/20 06:24:19;;;;;;;13.13;5.93;;;;;;;-2.95;90.46;101637.88;5028880;28;20034;-71
2024/02/20 06:26:45;;;;;;;7.00;3.73;;;;;;;-3.15;90.75;101604.72;5030670;28;20091;-71
2024/02/20 06:29:11;;;;;;;9.77;4.50;;;;;;;-2.92;90.54;101632.53;5030407;28;20037;-71
2024/02/20 06:31:38;;;;;;;6.93;3.55;;;;;;;-2.87;90.37;101638.47;5023752;28;20046;-71
2024/02/20 06:34:07;;;;;;;5.93;3.88;;;;;;;-2.74;90.90;101667.53;5055798;28;20033;-70
2024/02/20 06:36:32;;;;;;;5.47;4.43;;;;;;;-2.89;89.70;101643.72;5021326;28;20117;-70
2024/02/20 06:38:58;;;;;;;7.27;3.27;;;;;;;-2.90;89.21;101647.22;5042725;28;20068;-71
2024/02/20 06:41:24;;;;;;;5.03;3.20;;;;;;;-2.78;90.55;101661.56;5032352;28;20072;-71
2024/02/20 06:43:50;;;;;;;10.83;3.70;;;;;;;-2.74;89.83;101665.78;5030688;28;20087;-71
2024/02/20 06:46:15;;;;;;;8.83;4.67;;;;;;;-2.64;88.90;101668.88;5032787;28;20033;-73
2024/02/20 06:48:43;;;;;;;5.30;3.20;;;;;;;-2.65;89.05;101672.41;5031169;28;20041;-70
2024/02/20 06:51:10;;;;;;;8.13;4.18;;;;;;;-2.63;89.06;101676.66;5033384;28;20037;-71
2024/02/20 06:53:36;;;;;;;5.43;4.53;;;;;;;-2.79;89.17;101639.03;5032555;28;20492;-72
2024/02/20 06:56:02;;;;;;;10.57;3.70;;;;;;;-2.62;88.37;101672.28;5031698;28;20046;-71
2024/02/20 06:58:27;;;;;;;5.93;3.72;;;;;;;-2.61;87.50;101673.97;5033103;28;20489;-72
2024/02/20 07:00:53;;;;;;;9.67;3.37;;;;;;;-2.69;87.85;101660.38;5038710;28;20034;-70
2024/02/20 07:03:20;;;;;;;7.83;4.23;;;;;;;-2.57;88.23;101680.81;5035813;28;20095;-70
2024/02/20 07:05:46;;;;;;;5.95;3.35;;;;;;;-2.83;87.71;101633.06;5029900;28;20089;-73
2024/02/20 07:08:12;;;;;;;10.77;3.80;;;;;;;-2.48;88.16;101677.00;5029570;28;20045;-74
2024/02/20 07:10:38;;;;;;;8.13;3.87;;;;;;;-2.58;87.76;101663.47;5029510;28;20033;-76
2024/02/20 07:13:05;;;;;;;5.40;3.50;;;;;;;-2.68;86.85;101651.66;5036611;28;20029;-70
2024/02/20 07:15:32;;;;;;;7.35;3.63;;;;;;;-2.61;87.36;101653.13;5037950;28;20394;-68
2024/02/20 07:17:59;;;;;;;9.98;3.70;;;;;;;-2.61;87.87;101650.50;5038865;28;20390;-69
2024/02/20 07:20:26;;;;;;;6.32;3.60;;;;;;;-2.48;86.53;101672.63;5035944;28;20033;-75
2024/02/20 07:22:53;;;;;;;8.05;3.58;;;;;;;-2.46;86.32;101659.53;5035730;28;20047;-71
2024/02/20 07:25:25;;;;;;;6.70;2.90;;;;;;;-2.36;85.42;101673.94;5034557;28;20491;-75
2024/02/20 07:27:53;;;;;;;11.45;5.95;;;;;;;-2.65;86.69;101615.88;5036618;28;20079;-69
2024/02/20 07:30:20;;;;;;;8.10;4.68;;;;;;;-2.33;87.21;101679.88;5036387;28;20037;-70
2024/02/20 07:32:47;;;;;;;9.95;4.63;;;;;;;-2.43;87.04;101651.59;5034892;28;20072;-70
2024/02/20 07:35:17;;;;;;;9.13;4.95;;;;;;;-2.53;87.11;101625.88;5034034;28;20083;-69
2024/02/20 07:37:45;;;;;;;5.45;3.85;;;;;;;-2.23;85.68;101660.38;5034303;28;20422;-70
2024/02/20 07:40:11;;;;;;;17.63;3.95;;;;;;;-2.05;86.10;101669.22;5035132;28;20033;-72
2024/02/20 07:42:38;;;;;;;10.00;3.67;;;;;;;-1.97;84.09;101687.22;5034871;28;20040;-72
2024/02/20 07:45:04;;;;;;;9.57;4.05;;;;;;;-2.09;84.40;101657.22;5034456;28;20481;-70
2024/02/20 07:47:30;;;;;;;7.93;4.20;;;;;;;-2.02;84.35;101663.91;5034287;28;20412;-70
2024/02/20 07:49:57;;;;;;;7.70;4.20;;;;;;;-2.00;83.49;101669.91;5034374;28;20268;-70
2024/02/20 07:52:22;;;;;;;8.00;3.80;;;;;;;-2.02;83.36;101670.91;5033972;28;20061;-69
2024/02/20 07:54:48;;;;;;;8.67;3.93;;;;;;;-1.95;82.98;101667.97;5034099;28;20072;-70
2024/02/20 07:57:14;;;;;;;8.50;4.13;;;;;;;-1.89;83.03;101674.72;5033274;28;20053;-71
2024/02/20 07:59:39;;;;;;;8.60;4.07;;;;;;;-2.00;82.39;101651.66;5032700;28;20047;-71
2024/02/20 08:02:08;;;;;;;7.87;3.80;;;;;;;-2.05;83.40;101639.66;5033988;28;20029;-71
2024/02/20 08:04:35;;;;;;;13.17;4.20;;;;;;;-1.87;82.29;101650.25;5033854;28;20037;-71
2024/02/20 08:07:01;;;;;;;9.57;4.07;;;;;;;-2.16;82.74;101595.72;5033882;28;20272;-70
2024/02/20 08:09:27;;;;;;;8.10;4.13;;;;;;;-1.81;81.85;101659.56;5034063;28;20030;-71
2024/02/20 08:11:52;;;;;;;7.63;4.17;;;;;;;-1.79;83.14;101660.38;5033741;28;20041;-70
2024/02/20 08:14:19;;;;;;;10.37;4.47;;;;;;;-2.33;82.75;101562.47;5033958;28;20120;-69
2024/02/20 08:16:48;;;;;;;9.03;4.13;;;;;;;-1.84;82.18;101630.97;5033685;28;20041;-70
2024/02/20 08:19:15;;;;;;;6.63;3.58;;;;;;;-1.72;82.40;101656.63;5033633;28;20287;-72
2024/02/20 08:21:40;;;;;;;10.60;4.32;;;;;;;-2.09;82.11;101594.56;5033724;28;20037;-71
2024/02/20 08:24:06;;;;;;;8.57;3.83;;;;;;;-1.85;82.29;101634.50;5033900;28;20045;-70
2024/02/20 08:26:34;;;;;;;14.17;5.23;;;;;;;-1.78;82.33;101635.09;5033252;28;20084;-69
2024/02/20 08:28:59;;;;;;;6.37;4.30;;;;;;;-1.72;82.52;101629.66;5033766;28;20288;-73
2024/02/20 08:31:25;;;;;;;10.20;4.47;;;;;;;-1.55;81.09;101642.84;5065502;28;20308;-71
2024/02/20 08:33:51;;;;;;;11.17;4.20;;;;;;;-1.81;80.37;101586.47;5033532;28;20041;-71
2024/02/20 08:36:19;;;;;;;10.20;4.03;;;;;;;-1.45;80.73;101630.25;5033029;28;20279;-70
2024/02/20 08:38:46;;;;;;;13.65;4.47;;;;;;;-1.24;80.67;101652.84;5033133;28;20040;-70
2024/02/20 08:41:15;;;;;;;8.60;4.97;;;;;;;-1.23;79.05;101649.31;5015610;28;20135;-72
2024/02/20 08:43:42;;;;;;;15.63;4.45;;;;;;;-1.21;79.48;101637.03;5033801;28;20283;-69
2024/02/20 08:46:08;;;;;;;11.33;5.00;;;;;;;-1.09;79.02;101649.59;5033506;28;20485;-72
2024/02/20 08:48:34;;;;;;;9.50;4.90;;;;;;;-0.98;79.11;101655.19;5033475;28;20284;-72
2024/02/20 08:50:59;;;;;;;8.83;4.77;;;;;;;-1.18;77.77;101620.38;5033483;28;20288;-72
2024/02/20 08:53:25;;;;;;;9.33;3.53;;;;;;;-1.03;77.67;101633.63;5033942;28;20040;-73
2024/02/20 08:55:51;;;;;;;6.30;4.00;;;;;;;-1.17;78.44;101586.31;5033749;28;20042;-70
2024/02/20 08:58:17;;;;;;;12.77;5.33;;;;;;;-0.95;76.38;101613.22;5034242;28;20041;-71
2024/02/20 09:00:45;;;;;;;9.87;3.97;;;;;;;-0.74;76.67;101652.41;5033695;28;20081;-71
2024/02/20 09:03:12;;;;;;;8.68;4.70;;;;;;;-0.70;77.03;101625.19;5033309;28;20747;-70
2024/02/20 09:05:37;;;;;;;8.47;4.60;;;;;;;-0.80;76.70;101610.84;5033159;28;20047;-73
2024/02/20 09:08:03;;;;;;;9.23;5.03;;;;;;;-0.71;76.04;101647.03;5033188;28;20037;-73
2024/02/20 09:10:29;;;;;;;7.77;4.10;;;;;;;-1.01;77.98;101613.50;5031802;28;20029;-72
2024/02/20 09:12:55;;;;;;;10.70;5.00;;;;;;;-0.76;77.39;101639.41;5064747;28;20276;-72
2024/02/20 09:15:20;;;;;;;10.63;4.47;;;;;;;-0.86;76.97;101629.44;5033120;28;20108;-71
2024/02/20 09:17:46;;;;;;;6.33;3.50;;;;;;;-0.83;76.34;101632.78;5048028;28;20124;-69
2024/02/20 09:20:12;;;;;;;8.17;5.00;;;;;;;-0.69;77.06;101645.22;5032845;28;20037;-71
2024/02/20 09:22:41;;;;;;;7.77;5.00;;;;;;;-0.65;76.94;101631.06;5033009;28;20040;-71
2024/02/20 09:25:10;;;;;;;;;;;;;;;-0.42;76.10;101645.72;5032735;28;20489;-69
2024/02/20 09:27:39;;;;;;;9.10;4.80;;;;;;;-0.47;75.08;101645.94;5032452;28;20360;-71
2024/02/20 09:30:05;;;;;;;13.63;5.90;;;;;;;-0.59;75.85;101638.63;5030939;28;20285;-71
2024/02/20 09:32:31;;;;;;;7.87;4.37;;;;;;;-0.69;76.23;101619.91;5063626;28;20091;-69
2024/02/20 09:34:57;;;;;;;10.67;4.43;;;;;;;-0.57;76.26;101639.44;5031886;28;20271;-70
2024/02/20 09:37:29;;;;;;;14.47;6.23;;;;;;;-0.67;76.48;101609.38;5030626;28;20291;-70
2024/02/20 09:39:56;;;;;;;13.50;6.50;;;;;;;-0.69;75.94;101611.19;5030921;28;20280;-70
2024/02/20 09:42:27;;;;;;;11.17;4.90;;;;;;;-0.50;76.69;101646.09;5032006;28;20598;-69
2024/02/20 09:44:55;;;;;;;8.30;4.20;;;;;;;-0.66;76.37;101621.53;5031733;28;20272;-71
2024/02/20 09:47:22;;;;;;;9.63;4.63;;;;;;;-0.55;75.95;101642.00;5032394;28;20264;-74
2024/02/20 09:49:53;;;;;;;13.20;5.33;;;;;;;-0.81;75.83;101577.78;5030833;28;20272;-72
2024/02/20 09:52:31;;;;;;;8.40;4.63;;;;;;;-0.38;75.72;101642.88;5032337;28;20298;-71
2024/02/20 09:55:14;;;;;;;8.00;4.00;;;;;;;-0.52;75.44;101613.06;5015028;28;20276;-67
2024/02/20 09:57:39;;;;;;;7.97;4.30;;;;;;;-0.52;75.25;101606.06;5031581;28;20778;-70
2024/02/20 10:00:06;;;;;;;12.70;5.10;;;;;;;-0.20;74.55;101637.72;5031612;28;20292;-69
2024/02/20 10:02:32;;;;;;;7.87;5.27;;;;;;;-0.13;74.49;101639.13;5031802;28;20037;-67
2024/02/20 10:05:03;;;;;;;11.13;4.50;;;;;;;-0.18;74.17;101620.19;5030748;28;20743;-69
2024/02/20 10:07:29;;;;;;;11.63;3.70;;;;;;;-0.36;73.27;101572.16;5064490;28;20272;-70
2024/02/20 10:09:55;;;;;;;7.70;4.80;;;;;;;-0.08;72.47;101632.75;5032118;28;20279;-72
2024/02/20 10:12:23;;;;;;;11.23;3.90;;;;;;;-0.09;74.01;101625.81;5031755;28;20477;-68
2024/02/20 10:15:29;;;;;;;9.80;4.28;;;;;;;0.05;72.41;101630.41;5030567;28;20055;-69
2024/02/20 10:18:03;;;;;;;7.77;3.90;;;;;;;-0.15;71.94;101617.41;5031560;28;20088;-68
2024/02/20 10:20:29;;;;;;;10.83;5.07;;;;;;;-0.24;72.17;101596.91;5063599;28;20271;-71
2024/02/20 10:23:08;;;;;;;8.27;4.63;;;;;;;-0.01;71.90;101628.06;5030878;28;20276;-70
2024/02/20 10:25:38;;;;;;;10.03;4.60;;;;;;;-0.31;72.91;101571.00;5061450;28;20284;-69
2024/02/20 10:28:05;;;;;;;13.23;5.80;;;;;;;-0.01;72.81;101600.09;5031388;28;20284;-72
2024/02/20 10:30:31;;;;;;;12.87;4.83;;;;;;;0.17;71.28;101615.84;5031646;28;20265;-73
2024/02/20 10:32:58;;;;;;;7.67;4.53;;;;;;;0.21;71.09;101623.47;5031599;28;20272;-72
2024/02/20 10:35:23;;;;;;;15.03;5.23;;;;;;;0.22;71.02;101619.94;5031644;28;20370;-72
2024/02/20 10:38:03;;;;;;;14.03;4.50;;;;;;;-0.06;71.70;101607.34;5030000;28;20676;-70
2024/02/20 10:40:30;;;;;;;10.83;4.57;;;;;;;0.05;72.58;101622.53;5030796;28;20041;-72
2024/02/20 10:42:56;;;;;;;10.63;4.53;;;;;;;-0.08;72.26;101592.63;5031065;28;20272;-70
2024/02/20 10:45:23;;;;;;;16.33;4.73;;;;;;;-0.05;71.98;101597.72;5031205;28;20269;-72
2024/02/20 10:47:52;;;;;;;7.40;4.47;;;;;;;0.05;72.24;101592.88;5031032;28;20296;-70
2024/02/20 10:50:18;;;;;;;;;;;;;;;0.29;71.88;101617.88;5034893;28;20271;-71
2024/02/20 10:52:46;;;;;;;8.50;5.13;;;;;;;0.06;72.32;101569.25;5067157;28;20320;-73
2024/02/20 10:55:12;;;;;;;7.50;5.22;;;;;;;0.23;71.13;101590.19;5035011;28;20098;-70
2024/02/20 10:57:41;;;;;;;8.63;4.37;;;;;;;0.38;71.05;101604.31;5036127;28;20525;-71
2024/02/20 11:00:12;;;;;;;13.13;5.80;;;;;;;0.44;72.43;101595.28;5035228;28;20516;-72
2024/02/20 11:02:51;;;;;;;10.13;4.87;;;;;;;0.29;71.60;101553.22;5035522;28;20276;-73
2024/02/20 11:05:17;;;;;;;7.47;4.85;;;;;;;0.54;70.52;101602.59;5017594;28;20284;-74
2024/02/20 11:07:44;;;;;;;8.77;4.23;;;;;;;0.27;70.90;101577.78;5033562;28;20041;-71
2024/02/20 11:10:18;;;;;;;7.17;4.43;;;;;;;0.16;71.02;101604.53;5035071;28;20290;-71
2024/02/20 11:12:46;;;;;;;7.60;4.47;;;;;;;0.09;70.68;101591.81;5037243;28;20292;-71
2024/02/20 11:15:20;;;;;;;12.73;4.07;;;;;;;0.03;71.52;101561.53;5035553;28;20282;-75
2024/02/20 11:17:52;;;;;;;8.87;4.33;;;;;;;0.10;71.78;101547.22;5034833;28;20652;-72
2024/02/20 11:20:23;;;;;;;14.30;4.57;;;;;;;0.26;70.46;101590.03;5067270;28;20334;-73
2024/02/20 11:22:49;;;;;;;9.00;5.20;;;;;;;0.06;70.23;101565.78;5034968;28;20764;-72